Archival Weather

Dewar Lakes

Dewar Lakes, Canada (CWUW)

Report from: Friday, May 26, 2023 8:00 PM EDT
Current time: Monday, July 22, 2024 7:53 AM EDT

Current weather – Weather history – Daily summaries
Weather forecast

Present weatherSM
Temperature-13.0°C (8.6°F)
Wind chill-23.9°C (-11.0°F)
Dew point-14.0°C (6.8°F)
Winds 18 kts (9.3 m/s, 20.7 mph) West (270°)
Visibility0 ft. (0 m)
Altimeter29.78 in.Hg (1008 mB)
Relative humidity92 %
Density altitude-3,324 ft. (-1,013 m)
Remarks Fully automated report
Flight conditions Low Instrument Meteorological Conditions
Raw dataCWUW 270000Z AUTO 27018KT ////SM ////// M13/M14 A2978
An error has occurred. This application may no longer respond until reloaded. Reload 🗙